AAL943 KMCO-KCLT
Flight info
| Callsign | AAL943 |
|---|---|
| Flight time | 1h 17m |
| Altitude | 31000 |
| Route | FATHE4 VIYAP CHECR STOCR4 |
| Aircraft | A321/M-SDE3FGHIRWY/LB1 |
Departure
| Time | 2026-04-26 11:13 |
|---|---|
| Airport | Orlando International Airport (KMCO) |
Arrival
| Time | 2026-04-26 12:30 |
|---|---|
| Airport | Charlotte Douglas International Airport (KCLT) |
| Time | Latitude | Longitude | Altitude | Speed | Heading |
|---|---|---|---|---|---|
| 2026-04-26 10:36 | 28.42688 | -81.31209 | 95 ft | 0 kts | 282° |
| 2026-04-26 10:54 | 28.42685 | -81.31194 | 95 ft | 4 kts | 277° |
| 2026-04-26 10:55 | 28.42685 | -81.31165 | 93 ft | 4 kts | 256° |
| 2026-04-26 10:55 | 28.42694 | -81.31141 | 95 ft | 4 kts | 207° |
| 2026-04-26 10:55 | 28.42704 | -81.31137 | 96 ft | 0 kts | 168° |
| 2026-04-26 11:00 | 28.42700 | -81.31136 | 95 ft | 1 kts | 168° |
| 2026-04-26 11:00 | 28.42688 | -81.31133 | 94 ft | 2 kts | 168° |
| 2026-04-26 11:00 | 28.42667 | -81.31129 | 96 ft | 4 kts | 168° |
| 2026-04-26 11:00 | 28.42638 | -81.31124 | 97 ft | 5 kts | 180° |
| 2026-04-26 11:01 | 28.42604 | -81.31137 | 94 ft | 6 kts | 206° |
| 2026-04-26 11:01 | 28.42566 | -81.31160 | 96 ft | 6 kts | 210° |
| 2026-04-26 11:01 | 28.42525 | -81.31189 | 95 ft | 8 kts | 214° |
| 2026-04-26 11:01 | 28.42478 | -81.31224 | 97 ft | 8 kts | 213° |
| 2026-04-26 11:02 | 28.42425 | -81.31263 | 94 ft | 10 kts | 213° |
| 2026-04-26 11:02 | 28.42361 | -81.31277 | 95 ft | 10 kts | 146° |
| 2026-04-26 11:02 | 28.42342 | -81.31198 | 97 ft | 11 kts | 98° |
| 2026-04-26 11:02 | 28.42329 | -81.31109 | 94 ft | 12 kts | 101° |
| 2026-04-26 11:03 | 28.42316 | -81.31012 | 94 ft | 13 kts | 94° |
| 2026-04-26 11:03 | 28.42318 | -81.30919 | 94 ft | 14 kts | 87° |
| 2026-04-26 11:03 | 28.42327 | -81.30807 | 96 ft | 15 kts | 85° |
| 2026-04-26 11:03 | 28.42334 | -81.30693 | 99 ft | 14 kts | 85° |
| 2026-04-26 11:04 | 28.42343 | -81.30580 | 96 ft | 15 kts | 84° |
| 2026-04-26 11:04 | 28.42351 | -81.30451 | 94 ft | 17 kts | 86° |
| 2026-04-26 11:04 | 28.42357 | -81.30316 | 94 ft | 18 kts | 88° |
| 2026-04-26 11:04 | 28.42361 | -81.30177 | 94 ft | 18 kts | 89° |
| 2026-04-26 11:05 | 28.42361 | -81.30029 | 94 ft | 19 kts | 90° |
| 2026-04-26 11:05 | 28.42362 | -81.29879 | 95 ft | 19 kts | 87° |
| 2026-04-26 11:05 | 28.42447 | -81.29796 | 98 ft | 18 kts | 1° |
| 2026-04-26 11:05 | 28.42575 | -81.29796 | 96 ft | 19 kts | 359° |
| 2026-04-26 11:06 | 28.42712 | -81.29798 | 96 ft | 20 kts | 359° |
| 2026-04-26 11:06 | 28.42849 | -81.29800 | 96 ft | 20 kts | 359° |
| 2026-04-26 11:06 | 28.42992 | -81.29799 | 95 ft | 21 kts | 0° |
| 2026-04-26 11:06 | 28.43139 | -81.29800 | 96 ft | 21 kts | 359° |
| 2026-04-26 11:07 | 28.43288 | -81.29802 | 95 ft | 22 kts | 360° |
| 2026-04-26 11:07 | 28.43431 | -81.29800 | 95 ft | 18 kts | 2° |
| 2026-04-26 11:07 | 28.43542 | -81.29780 | 96 ft | 15 kts | 45° |
| 2026-04-26 11:07 | 28.43552 | -81.29719 | 98 ft | 0 kts | 95° |
| 2026-04-26 11:10 | 28.43551 | -81.29717 | 95 ft | 1 kts | 95° |
| 2026-04-26 11:10 | 28.43551 | -81.29710 | 95 ft | 1 kts | 95° |
| 2026-04-26 11:10 | 28.43550 | -81.29698 | 98 ft | 2 kts | 94° |
| 2026-04-26 11:10 | 28.43549 | -81.29674 | 98 ft | 4 kts | 93° |
| 2026-04-26 11:11 | 28.43548 | -81.29644 | 96 ft | 4 kts | 92° |
| 2026-04-26 11:11 | 28.43547 | -81.29625 | 99 ft | 4 kts | 92° |
| 2026-04-26 11:11 | 28.43541 | -81.29598 | 97 ft | 3 kts | 118° |
| 2026-04-26 11:11 | 28.43535 | -81.29591 | 98 ft | 3 kts | 135° |
| 2026-04-26 11:12 | 28.43514 | -81.29585 | 99 ft | 3 kts | 180° |
| 2026-04-26 11:12 | 28.43431 | -81.29586 | 98 ft | 38 kts | 179° |
| 2026-04-26 11:12 | 28.43010 | -81.29580 | 99 ft | 99 kts | 179° |
| 2026-04-26 11:12 | 28.42114 | -81.29572 | 98 ft | 156 kts | 179° |
| 2026-04-26 11:13 | 28.40933 | -81.29558 | 443 ft | 173 kts | 179° |
| 2026-04-26 11:13 | 28.39717 | -81.29487 | 1127 ft | 175 kts | 172° |
| 2026-04-26 11:13 | 28.38573 | -81.29027 | 1851 ft | 177 kts | 153° |
| 2026-04-26 11:13 | 28.37637 | -81.28350 | 2338 ft | 180 kts | 148° |
| 2026-04-26 11:14 | 28.36564 | -81.27585 | 2827 ft | 184 kts | 151° |
| 2026-04-26 11:14 | 28.35427 | -81.26880 | 3291 ft | 191 kts | 152° |
| 2026-04-26 11:14 | 28.34540 | -81.26257 | 3427 ft | 208 kts | 143° |
| 2026-04-26 11:14 | 28.33834 | -81.25467 | 3517 ft | 224 kts | 128° |
| 2026-04-26 11:15 | 28.33099 | -81.23275 | 3748 ft | 255 kts | 92° |
| 2026-04-26 11:15 | 28.33435 | -81.21243 | 4162 ft | 270 kts | 63° |
| 2026-04-26 11:15 | 28.34596 | -81.19574 | 4815 ft | 274 kts | 36° |
| 2026-04-26 11:15 | 28.36312 | -81.18674 | 5516 ft | 275 kts | 8° |
| 2026-04-26 11:16 | 28.38197 | -81.18739 | 6230 ft | 275 kts | 348° |
| 2026-04-26 11:16 | 28.40046 | -81.19144 | 6930 ft | 277 kts | 348° |
| 2026-04-26 11:16 | 28.41923 | -81.19564 | 7624 ft | 279 kts | 348° |
| 2026-04-26 11:16 | 28.43825 | -81.19989 | 8321 ft | 282 kts | 347° |
| 2026-04-26 11:17 | 28.45784 | -81.20422 | 9035 ft | 284 kts | 347° |
| 2026-04-26 11:17 | 28.47705 | -81.20843 | 9738 ft | 286 kts | 347° |
| 2026-04-26 11:17 | 28.49673 | -81.21278 | 10337 ft | 292 kts | 347° |
| 2026-04-26 11:17 | 28.51744 | -81.21738 | 10470 ft | 314 kts | 347° |
| 2026-04-26 11:18 | 28.53965 | -81.22232 | 10638 ft | 334 kts | 347° |
| 2026-04-26 11:18 | 28.56272 | -81.22738 | 11115 ft | 341 kts | 347° |
| 2026-04-26 11:18 | 28.58612 | -81.23249 | 11725 ft | 345 kts | 347° |
| 2026-04-26 11:18 | 28.60982 | -81.23765 | 12357 ft | 347 kts | 347° |
| 2026-04-26 11:19 | 28.63365 | -81.24286 | 12982 ft | 350 kts | 347° |
| 2026-04-26 11:19 | 28.65768 | -81.24814 | 13613 ft | 353 kts | 347° |
| 2026-04-26 11:19 | 28.68188 | -81.25342 | 14184 ft | 356 kts | 347° |
| 2026-04-26 11:19 | 28.70625 | -81.25876 | 14740 ft | 359 kts | 347° |
| 2026-04-26 11:20 | 28.73090 | -81.26419 | 15305 ft | 361 kts | 347° |
| 2026-04-26 11:20 | 28.74723 | -81.26780 | 15678 ft | 363 kts | 347° |
| 2026-04-26 11:20 | 28.78062 | -81.27514 | 16450 ft | 366 kts | 347° |
| 2026-04-26 11:20 | 28.80572 | -81.28061 | 16998 ft | 369 kts | 347° |
| 2026-04-26 11:21 | 28.83107 | -81.28616 | 17557 ft | 372 kts | 347° |
| 2026-04-26 11:21 | 28.85654 | -81.28971 | 18082 ft | 376 kts | 353° |
| 2026-04-26 11:21 | 28.88274 | -81.29193 | 18579 ft | 379 kts | 353° |
| 2026-04-26 11:21 | 28.90908 | -81.29416 | 19051 ft | 381 kts | 353° |
| 2026-04-26 11:22 | 28.93562 | -81.29641 | 19541 ft | 384 kts | 353° |
| 2026-04-26 11:22 | 28.96239 | -81.29868 | 20012 ft | 387 kts | 353° |
| 2026-04-26 11:22 | 28.98931 | -81.30099 | 20496 ft | 389 kts | 353° |
| 2026-04-26 11:22 | 29.01636 | -81.30354 | 20978 ft | 392 kts | 352° |
| 2026-04-26 11:23 | 29.04365 | -81.30649 | 21449 ft | 394 kts | 352° |
| 2026-04-26 11:23 | 29.07101 | -81.30965 | 21910 ft | 397 kts | 352° |
| 2026-04-26 11:23 | 29.09776 | -81.31279 | 22346 ft | 400 kts | 352° |
| 2026-04-26 11:23 | 29.12551 | -81.31577 | 22785 ft | 403 kts | 353° |
| 2026-04-26 11:24 | 29.15197 | -81.31783 | 23177 ft | 406 kts | 354° |
| 2026-04-26 11:24 | 29.17787 | -81.31934 | 23552 ft | 408 kts | 355° |
| 2026-04-26 11:24 | 29.20640 | -81.32070 | 23904 ft | 411 kts | 355° |
| 2026-04-26 11:24 | 29.23500 | -81.32205 | 24263 ft | 413 kts | 355° |
| 2026-04-26 11:25 | 29.26084 | -81.32336 | 24588 ft | 414 kts | 355° |
| 2026-04-26 11:25 | 29.29023 | -81.32499 | 24951 ft | 416 kts | 355° |
| 2026-04-26 11:25 | 29.31914 | -81.32671 | 25313 ft | 417 kts | 354° |
| 2026-04-26 11:25 | 29.34827 | -81.32849 | 25665 ft | 419 kts | 354° |
| 2026-04-26 11:26 | 29.37705 | -81.33025 | 26013 ft | 420 kts | 355° |
| 2026-04-26 11:26 | 29.40605 | -81.33201 | 26356 ft | 422 kts | 354° |
| 2026-04-26 11:26 | 29.43544 | -81.33380 | 26710 ft | 424 kts | 355° |
| 2026-04-26 11:26 | 29.46457 | -81.33556 | 27041 ft | 425 kts | 355° |
| 2026-04-26 11:27 | 29.49419 | -81.33734 | 27376 ft | 427 kts | 355° |
| 2026-04-26 11:27 | 29.52390 | -81.33915 | 27703 ft | 429 kts | 355° |
| 2026-04-26 11:27 | 29.55370 | -81.34094 | 28023 ft | 430 kts | 355° |
| 2026-04-26 11:27 | 29.58367 | -81.34273 | 28347 ft | 432 kts | 355° |
| 2026-04-26 11:28 | 29.61329 | -81.34453 | 28663 ft | 433 kts | 355° |
| 2026-04-26 11:28 | 29.64350 | -81.34637 | 28962 ft | 435 kts | 355° |
| 2026-04-26 11:28 | 29.67251 | -81.34812 | 29256 ft | 436 kts | 355° |
| 2026-04-26 11:28 | 29.70289 | -81.34987 | 29558 ft | 438 kts | 355° |
| 2026-04-26 11:29 | 29.73344 | -81.35161 | 29866 ft | 440 kts | 355° |
| 2026-04-26 11:29 | 29.75371 | -81.35277 | 30061 ft | 441 kts | 355° |
| 2026-04-26 11:29 | 29.78435 | -81.35451 | 30328 ft | 442 kts | 355° |
| 2026-04-26 11:29 | 29.82539 | -81.35683 | 30785 ft | 441 kts | 355° |
| 2026-04-26 11:30 | 29.84578 | -81.35799 | 30893 ft | 441 kts | 355° |
| 2026-04-26 11:30 | 29.87635 | -81.35973 | 30950 ft | 439 kts | 355° |
| 2026-04-26 11:30 | 29.93731 | -81.36321 | 30952 ft | 438 kts | 355° |
| 2026-04-26 11:31 | 29.99831 | -81.36674 | 30953 ft | 438 kts | 355° |
| 2026-04-26 11:31 | 30.05910 | -81.37024 | 30951 ft | 438 kts | 355° |
| 2026-04-26 11:32 | 30.11984 | -81.37368 | 30950 ft | 438 kts | 355° |
| 2026-04-26 11:32 | 30.18074 | -81.37718 | 30943 ft | 438 kts | 355° |
| 2026-04-26 11:33 | 30.24158 | -81.38076 | 30943 ft | 438 kts | 355° |
| 2026-04-26 11:33 | 30.30234 | -81.38428 | 30945 ft | 437 kts | 355° |
| 2026-04-26 11:34 | 30.36219 | -81.38770 | 30946 ft | 437 kts | 355° |
| 2026-04-26 11:34 | 30.42294 | -81.39129 | 30943 ft | 437 kts | 354° |
| 2026-04-26 11:35 | 30.48370 | -81.39484 | 30942 ft | 437 kts | 355° |
| 2026-04-26 11:35 | 30.54394 | -81.39804 | 30964 ft | 436 kts | 355° |
| 2026-04-26 11:36 | 30.59433 | -81.40058 | 30963 ft | 436 kts | 355° |
| 2026-04-26 11:36 | 30.65500 | -81.40376 | 30963 ft | 436 kts | 355° |
| 2026-04-26 11:37 | 30.71534 | -81.40693 | 30961 ft | 431 kts | 353° |
| 2026-04-26 11:37 | 30.77517 | -81.41007 | 30955 ft | 429 kts | 353° |
| 2026-04-26 11:38 | 30.83479 | -81.41327 | 30947 ft | 429 kts | 353° |
| 2026-04-26 11:38 | 30.89447 | -81.41648 | 30928 ft | 429 kts | 353° |
| 2026-04-26 11:39 | 30.95418 | -81.41967 | 30928 ft | 429 kts | 353° |
| 2026-04-26 11:39 | 31.01378 | -81.42285 | 30925 ft | 429 kts | 353° |
| 2026-04-26 11:40 | 31.07351 | -81.42601 | 30925 ft | 429 kts | 353° |
| 2026-04-26 11:40 | 31.13318 | -81.42915 | 30925 ft | 429 kts | 353° |
| 2026-04-26 11:42 | 31.36892 | -81.38816 | 30958 ft | 446 kts | 13° |
| 2026-04-26 11:43 | 31.42728 | -81.36439 | 30949 ft | 446 kts | 14° |
| 2026-04-26 11:43 | 31.48589 | -81.34049 | 30940 ft | 446 kts | 14° |
| 2026-04-26 11:44 | 31.54454 | -81.31664 | 30926 ft | 447 kts | 14° |
| 2026-04-26 11:44 | 31.60318 | -81.29269 | 30917 ft | 447 kts | 14° |
| 2026-04-26 11:45 | 31.66197 | -81.26863 | 30917 ft | 448 kts | 14° |
| 2026-04-26 11:45 | 31.72080 | -81.24444 | 30900 ft | 448 kts | 14° |
| 2026-04-26 11:46 | 31.77785 | -81.22094 | 30895 ft | 449 kts | 14° |
| 2026-04-26 11:46 | 31.83438 | -81.19768 | 30894 ft | 449 kts | 14° |
| 2026-04-26 11:47 | 31.89353 | -81.17345 | 30892 ft | 450 kts | 14° |
| 2026-04-26 11:47 | 31.95266 | -81.14915 | 30890 ft | 450 kts | 14° |
| 2026-04-26 11:48 | 32.01098 | -81.12504 | 30889 ft | 451 kts | 14° |
| 2026-04-26 11:48 | 32.06967 | -81.10076 | 30886 ft | 451 kts | 14° |
| 2026-04-26 11:49 | 32.12887 | -81.07625 | 30926 ft | 452 kts | 14° |
| 2026-04-26 11:49 | 32.18827 | -81.05170 | 30920 ft | 452 kts | 14° |
| 2026-04-26 11:50 | 32.24760 | -81.02712 | 30920 ft | 452 kts | 14° |
| 2026-04-26 11:50 | 32.30539 | -81.00313 | 30914 ft | 452 kts | 14° |
| 2026-04-26 11:51 | 32.36477 | -80.97842 | 30916 ft | 453 kts | 15° |
| 2026-04-26 11:51 | 32.42416 | -80.95359 | 30915 ft | 453 kts | 15° |
| 2026-04-26 11:52 | 32.48316 | -80.92895 | 30915 ft | 453 kts | 15° |
| 2026-04-26 11:52 | 32.54177 | -80.90446 | 30917 ft | 453 kts | 15° |
| 2026-04-26 11:53 | 32.60105 | -80.87962 | 30915 ft | 453 kts | 15° |
| 2026-04-26 11:54 | 32.69032 | -80.84219 | 30918 ft | 454 kts | 15° |
| 2026-04-26 11:54 | 32.74782 | -80.81142 | 30937 ft | 460 kts | 24° |
| 2026-04-26 11:55 | 32.80374 | -80.77506 | 30945 ft | 460 kts | 24° |
| 2026-04-26 11:55 | 32.85998 | -80.73864 | 30954 ft | 460 kts | 24° |
| 2026-04-26 11:56 | 32.91610 | -80.70215 | 30954 ft | 460 kts | 24° |
| 2026-04-26 11:56 | 32.97232 | -80.66541 | 30954 ft | 461 kts | 24° |
| 2026-04-26 11:57 | 33.02831 | -80.62888 | 30951 ft | 462 kts | 24° |
| 2026-04-26 11:57 | 33.08465 | -80.59217 | 30942 ft | 457 kts | 24° |
| 2026-04-26 11:57 | 33.11201 | -80.57425 | 30857 ft | 443 kts | 24° |
| 2026-04-26 11:58 | 33.13876 | -80.55668 | 30615 ft | 434 kts | 24° |
| 2026-04-26 11:58 | 33.16491 | -80.53950 | 30362 ft | 425 kts | 24° |
| 2026-04-26 11:58 | 33.19054 | -80.52267 | 30141 ft | 417 kts | 24° |
| 2026-04-26 11:58 | 33.21591 | -80.50604 | 29887 ft | 414 kts | 24° |
| 2026-04-26 11:59 | 33.24111 | -80.48955 | 29605 ft | 413 kts | 24° |
| 2026-04-26 11:59 | 33.26629 | -80.47306 | 29329 ft | 412 kts | 24° |
| 2026-04-26 11:59 | 33.29136 | -80.45663 | 29054 ft | 411 kts | 24° |
| 2026-04-26 11:59 | 33.31590 | -80.44052 | 28787 ft | 410 kts | 24° |
| 2026-04-26 12:00 | 33.34081 | -80.42414 | 28518 ft | 409 kts | 24° |
| 2026-04-26 12:00 | 33.36572 | -80.40775 | 28265 ft | 407 kts | 24° |
| 2026-04-26 12:00 | 33.38960 | -80.39204 | 28020 ft | 406 kts | 24° |
| 2026-04-26 12:00 | 33.41430 | -80.37576 | 27762 ft | 405 kts | 24° |
| 2026-04-26 12:01 | 33.43903 | -80.35945 | 27510 ft | 404 kts | 24° |
| 2026-04-26 12:01 | 33.46357 | -80.34325 | 27262 ft | 403 kts | 24° |
| 2026-04-26 12:01 | 33.48734 | -80.32754 | 27022 ft | 402 kts | 24° |
| 2026-04-26 12:01 | 33.51070 | -80.31209 | 26788 ft | 401 kts | 24° |
| 2026-04-26 12:02 | 33.53514 | -80.29590 | 26542 ft | 400 kts | 24° |
| 2026-04-26 12:02 | 33.55126 | -80.28522 | 26377 ft | 399 kts | 24° |
| 2026-04-26 12:02 | 33.58378 | -80.26368 | 26048 ft | 398 kts | 24° |
| 2026-04-26 12:02 | 33.60385 | -80.25039 | 25847 ft | 397 kts | 24° |
| 2026-04-26 12:03 | 33.62804 | -80.23439 | 25601 ft | 396 kts | 24° |
| 2026-04-26 12:03 | 33.65206 | -80.21848 | 25360 ft | 395 kts | 24° |
| 2026-04-26 12:03 | 33.67613 | -80.20251 | 25123 ft | 394 kts | 24° |
| 2026-04-26 12:03 | 33.70007 | -80.18661 | 24885 ft | 393 kts | 24° |
| 2026-04-26 12:04 | 33.72391 | -80.17077 | 24650 ft | 392 kts | 24° |
| 2026-04-26 12:04 | 33.74772 | -80.15494 | 24423 ft | 390 kts | 24° |
| 2026-04-26 12:04 | 33.77150 | -80.13909 | 24190 ft | 389 kts | 24° |
| 2026-04-26 12:04 | 33.79478 | -80.12357 | 23959 ft | 388 kts | 24° |
| 2026-04-26 12:05 | 33.81835 | -80.10785 | 23727 ft | 387 kts | 24° |
| 2026-04-26 12:05 | 33.84186 | -80.09217 | 23502 ft | 386 kts | 24° |
| 2026-04-26 12:05 | 33.86541 | -80.07644 | 23235 ft | 385 kts | 24° |
| 2026-04-26 12:05 | 33.88872 | -80.06085 | 22971 ft | 383 kts | 24° |
| 2026-04-26 12:06 | 33.91195 | -80.04533 | 22699 ft | 381 kts | 24° |
| 2026-04-26 12:06 | 33.93495 | -80.02991 | 22444 ft | 379 kts | 25° |
| 2026-04-26 12:06 | 33.95830 | -80.01563 | 22187 ft | 373 kts | 17° |
| 2026-04-26 12:06 | 33.98296 | -80.00690 | 21924 ft | 365 kts | 5° |
| 2026-04-26 12:07 | 34.00716 | -80.00409 | 21684 ft | 358 kts | 355° |
| 2026-04-26 12:07 | 34.03173 | -80.00677 | 21433 ft | 352 kts | 344° |
| 2026-04-26 12:07 | 34.05443 | -80.01428 | 21196 ft | 346 kts | 335° |
| 2026-04-26 12:07 | 34.07531 | -80.02572 | 20955 ft | 343 kts | 330° |
| 2026-04-26 12:08 | 34.09330 | -80.03639 | 20747 ft | 342 kts | 330° |
| 2026-04-26 12:08 | 34.11469 | -80.04898 | 20501 ft | 341 kts | 330° |
| 2026-04-26 12:08 | 34.13603 | -80.06149 | 20257 ft | 341 kts | 330° |
| 2026-04-26 12:08 | 34.15738 | -80.07399 | 20020 ft | 340 kts | 330° |
| 2026-04-26 12:09 | 34.17857 | -80.08645 | 19779 ft | 339 kts | 330° |
| 2026-04-26 12:09 | 34.19971 | -80.09889 | 19537 ft | 338 kts | 331° |
| 2026-04-26 12:09 | 34.22081 | -80.11135 | 19321 ft | 337 kts | 331° |
| 2026-04-26 12:09 | 34.24180 | -80.12376 | 18976 ft | 335 kts | 331° |
| 2026-04-26 12:10 | 34.26267 | -80.13613 | 18624 ft | 334 kts | 331° |
| 2026-04-26 12:10 | 34.28351 | -80.14845 | 18263 ft | 332 kts | 331° |
| 2026-04-26 12:10 | 34.30420 | -80.16067 | 17875 ft | 331 kts | 331° |
| 2026-04-26 12:10 | 34.32483 | -80.17286 | 17562 ft | 330 kts | 331° |
| 2026-04-26 12:11 | 34.34545 | -80.18506 | 17211 ft | 328 kts | 331° |
| 2026-04-26 12:11 | 34.36588 | -80.19716 | 16859 ft | 327 kts | 331° |
| 2026-04-26 12:11 | 34.38621 | -80.20924 | 16515 ft | 325 kts | 331° |
| 2026-04-26 12:11 | 34.40646 | -80.22127 | 16167 ft | 323 kts | 331° |
| 2026-04-26 12:12 | 34.42665 | -80.23327 | 15826 ft | 322 kts | 331° |
| 2026-04-26 12:12 | 34.44675 | -80.24523 | 15487 ft | 322 kts | 331° |
| 2026-04-26 12:12 | 34.46678 | -80.25717 | 15147 ft | 322 kts | 331° |
| 2026-04-26 12:12 | 34.48010 | -80.26512 | 14922 ft | 322 kts | 332° |
| 2026-04-26 12:13 | 34.50694 | -80.28110 | 14461 ft | 320 kts | 332° |
| 2026-04-26 12:13 | 34.52690 | -80.29299 | 14128 ft | 318 kts | 332° |
| 2026-04-26 12:13 | 34.54664 | -80.30475 | 13786 ft | 315 kts | 332° |
| 2026-04-26 12:13 | 34.56615 | -80.31642 | 13428 ft | 312 kts | 332° |
| 2026-04-26 12:14 | 34.58531 | -80.32787 | 13100 ft | 310 kts | 332° |
| 2026-04-26 12:14 | 34.60435 | -80.33991 | 12776 ft | 307 kts | 326° |
| 2026-04-26 12:14 | 34.62139 | -80.35529 | 12449 ft | 304 kts | 320° |
| 2026-04-26 12:14 | 34.63787 | -80.37119 | 12129 ft | 302 kts | 320° |
| 2026-04-26 12:15 | 34.65431 | -80.38705 | 11810 ft | 300 kts | 320° |
| 2026-04-26 12:15 | 34.67050 | -80.40269 | 11549 ft | 295 kts | 320° |
| 2026-04-26 12:15 | 34.68652 | -80.41814 | 11193 ft | 293 kts | 320° |
| 2026-04-26 12:15 | 34.70236 | -80.43350 | 10879 ft | 290 kts | 320° |
| 2026-04-26 12:16 | 34.71793 | -80.44871 | 10575 ft | 287 kts | 320° |
| 2026-04-26 12:16 | 34.73335 | -80.46383 | 10278 ft | 284 kts | 320° |
| 2026-04-26 12:16 | 34.74869 | -80.47892 | 9988 ft | 282 kts | 320° |
| 2026-04-26 12:16 | 34.76386 | -80.49388 | 9669 ft | 280 kts | 321° |
| 2026-04-26 12:17 | 34.77898 | -80.50878 | 9369 ft | 279 kts | 321° |
| 2026-04-26 12:17 | 34.79005 | -80.51970 | 9152 ft | 278 kts | 321° |
| 2026-04-26 12:17 | 34.80514 | -80.53455 | 8859 ft | 278 kts | 321° |
| 2026-04-26 12:17 | 34.82012 | -80.54932 | 8566 ft | 278 kts | 321° |
| 2026-04-26 12:18 | 34.83515 | -80.56418 | 8256 ft | 277 kts | 321° |
| 2026-04-26 12:18 | 34.85003 | -80.57890 | 7963 ft | 275 kts | 321° |
| 2026-04-26 12:18 | 34.85983 | -80.58859 | 7767 ft | 273 kts | 321° |
| 2026-04-26 12:18 | 34.87430 | -80.60337 | 7474 ft | 270 kts | 314° |
| 2026-04-26 12:19 | 34.88644 | -80.62913 | 7092 ft | 267 kts | 284° |
| 2026-04-26 12:19 | 34.88747 | -80.65148 | 6799 ft | 265 kts | 262° |
| 2026-04-26 12:19 | 34.88361 | -80.67341 | 6508 ft | 264 kts | 258° |
| 2026-04-26 12:19 | 34.87959 | -80.69503 | 6206 ft | 262 kts | 258° |
| 2026-04-26 12:20 | 34.87724 | -80.70813 | 6066 ft | 258 kts | 261° |
| 2026-04-26 12:20 | 34.87804 | -80.72904 | 6010 ft | 242 kts | 289° |
| 2026-04-26 12:20 | 34.88334 | -80.74863 | 6019 ft | 244 kts | 290° |
| 2026-04-26 12:20 | 34.88860 | -80.76798 | 6018 ft | 245 kts | 290° |
| 2026-04-26 12:21 | 34.89395 | -80.78766 | 6027 ft | 243 kts | 290° |
| 2026-04-26 12:21 | 34.89745 | -80.80065 | 6045 ft | 234 kts | 289° |
| 2026-04-26 12:21 | 34.90239 | -80.81898 | 6031 ft | 232 kts | 290° |
| 2026-04-26 12:21 | 34.90741 | -80.83760 | 6023 ft | 230 kts | 290° |
| 2026-04-26 12:22 | 34.91239 | -80.85610 | 6025 ft | 229 kts | 290° |
| 2026-04-26 12:22 | 34.91727 | -80.87426 | 6039 ft | 217 kts | 290° |
| 2026-04-26 12:22 | 34.92251 | -80.89040 | 6017 ft | 193 kts | 303° |
| 2026-04-26 12:22 | 34.93062 | -80.90204 | 6014 ft | 174 kts | 322° |
| 2026-04-26 12:23 | 34.94081 | -80.90962 | 5900 ft | 172 kts | 339° |
| 2026-04-26 12:23 | 34.95230 | -80.91289 | 5601 ft | 169 kts | 358° |
| 2026-04-26 12:23 | 34.96392 | -80.91380 | 5363 ft | 166 kts | 357° |
| 2026-04-26 12:23 | 34.97512 | -80.91476 | 5159 ft | 155 kts | 358° |
| 2026-04-26 12:24 | 34.98575 | -80.91569 | 4942 ft | 151 kts | 358° |
| 2026-04-26 12:24 | 34.99618 | -80.91658 | 4743 ft | 150 kts | 358° |
| 2026-04-26 12:24 | 35.00580 | -80.91741 | 4553 ft | 150 kts | 358° |
| 2026-04-26 12:25 | 35.02548 | -80.91909 | 4174 ft | 147 kts | 358° |
| 2026-04-26 12:25 | 35.03341 | -80.91975 | 4009 ft | 147 kts | 358° |
| 2026-04-26 12:25 | 35.04281 | -80.92056 | 3834 ft | 147 kts | 358° |
| 2026-04-26 12:25 | 35.04886 | -80.92108 | 3720 ft | 148 kts | 358° |
| 2026-04-26 12:26 | 35.05707 | -80.92180 | 3566 ft | 147 kts | 358° |
| 2026-04-26 12:26 | 35.06671 | -80.92263 | 3384 ft | 147 kts | 358° |
| 2026-04-26 12:26 | 35.07563 | -80.92338 | 3202 ft | 146 kts | 358° |
| 2026-04-26 12:26 | 35.08370 | -80.92407 | 3047 ft | 146 kts | 358° |
| 2026-04-26 12:27 | 35.09343 | -80.92490 | 2862 ft | 147 kts | 358° |
| 2026-04-26 12:27 | 35.10349 | -80.92576 | 2677 ft | 147 kts | 357° |
| 2026-04-26 12:27 | 35.11293 | -80.92657 | 2491 ft | 147 kts | 357° |
| 2026-04-26 12:27 | 35.12184 | -80.92734 | 2324 ft | 146 kts | 357° |
| 2026-04-26 12:28 | 35.13106 | -80.92812 | 2140 ft | 146 kts | 358° |
| 2026-04-26 12:28 | 35.14115 | -80.92899 | 1945 ft | 146 kts | 357° |
| 2026-04-26 12:28 | 35.15123 | -80.92985 | 1739 ft | 145 kts | 357° |
| 2026-04-26 12:28 | 35.16124 | -80.93072 | 1565 ft | 145 kts | 356° |
| 2026-04-26 12:29 | 35.17046 | -80.93162 | 1421 ft | 145 kts | 355° |
| 2026-04-26 12:29 | 35.18047 | -80.93255 | 1242 ft | 145 kts | 356° |
| 2026-04-26 12:29 | 35.20040 | -80.93412 | 799 ft | 142 kts | 355° |
| 2026-04-26 12:30 | 35.20942 | -80.93487 | 734 ft | 108 kts | 355° |
| 2026-04-26 12:30 | 35.21371 | -80.93523 | 734 ft | 28 kts | 356° |
| 2026-04-26 12:30 | 35.21428 | -80.93530 | 734 ft | 14 kts | 350° |
| 2026-04-26 12:31 | 35.21545 | -80.93648 | 733 ft | 14 kts | 313° |
| 2026-04-26 12:31 | 35.21608 | -80.93736 | 731 ft | 16 kts | 308° |
| 2026-04-26 12:31 | 35.21677 | -80.93838 | 732 ft | 13 kts | 311° |
| 2026-04-26 12:31 | 35.21736 | -80.93910 | 732 ft | 14 kts | 317° |
| 2026-04-26 12:32 | 35.21798 | -80.93978 | 732 ft | 7 kts | 320° |
| 2026-04-26 12:32 | 35.21838 | -80.94019 | 732 ft | 8 kts | 320° |
| 2026-04-26 12:32 | 35.21934 | -80.94135 | 731 ft | 11 kts | 289° |
| 2026-04-26 12:33 | 35.21931 | -80.94204 | 732 ft | 7 kts | 260° |
| 2026-04-26 12:33 | 35.21930 | -80.94210 | 732 ft | 0 kts | 260° |